Hlavní strana
METAR-TAF:

METAR-TAF

Letiště :

Savonlinna, Finsko

zeměpisná šířka: 61-57N, zeměpisná délka: 028-57E, výška: 95 m

Aktuální stav počasí

Zpráva byla vytvořena před 32 minutami, v 11:50 UTC
Západojihozápadní vítr 9 kt, proměnlivý mezi jihojihozápadním a západoseverozápadním
Teplota 18°C
Vlhkost vzduchu 30%
Tlak 1025 hPa
Viditelnost 10 km a více
Žádná oblačnost pod 1500 m, nevyskytují se cumulonimby.

METAR: EFSA 231150Z AUTO 24009KT 210V300 CAVOK 18/00 Q1025

Čas: 15:22 (12:22 UTC)


TAF: chybějící

Stav a předpovědi počasí z více než 4 000 letišť (zprávy METAR a TAF).

Červené a žluté tečky na mapě představují dostupné meteorologické stanice.

Když kurzor umístíte na tečku, zobrazí se název stanice.

Pak kliknutím zobrazíte stav a předpověď počasí.

Chcete-li změnit mapu, kliknutím na zelené tlačítko se znaménkem +mapu přiblížíte, kliknutím na zelené tlačítko se znaménkem – mapu oddálíte a kliknutím na zelené šipky přejdete na sousední mapy.


METAR-TAF: